Terminal Aerodrome Forecast
Issued by NWS Albany, NY

Home | Current Version | Previous Version | Text Only | Print | Product List | Glossary On
Versions: 1 2 3 4 5 6 7 8 9 10 11 12 13 14 15
000
FTUS41 KALY 231700
TAFPOU
TAF
KPOU 231723Z 2318/2418 32012G20KT P6SM VCSH OVC040
      TEMPO 2318/2319 6SM -SHRA BR OVC035
     FM232000 32015G27KT P6SM BKN045
     FM240100 30010G16KT P6SM SCT050
     FM241400 32015G27KT P6SM SKC=

USA.gov is the U.S. government's official web portal to all federal, state and local government web resources and services.